Time;durP1;ratioP1;P1;durP2;ratioP2;P2;SDS_P1;SDS_P2;PMS_P1;PMS_P2;Temp;Humidity;BMP_temperature;BMP_pressure;BME280_temperature;BME280_humidity;BME280_pressure;Samples;Min_cycle;Max_cycle;Signal;HPM_P1;HPM_P2
2022/01/26 00:07:02;;;;;;;160.63;54.00;;;;;;;1.13;86.45;102022.63;5074467;28;20415;-79
2022/01/26 00:09:27;;;;;;;169.77;56.45;;;;;;;1.16;87.19;102022.31;5085759;28;20856;-79
2022/01/26 00:11:53;;;;;;;205.60;57.05;;;;;;;1.17;86.50;102016.00;5074451;28;20396;-79
2022/01/26 00:14:18;;;;;;;181.97;56.97;;;;;;;1.14;86.84;102026.13;5088650;28;20483;-79
2022/01/26 00:16:44;;;;;;;186.37;57.17;;;;;;;1.08;87.06;102022.22;5075478;28;20434;-79
2022/01/26 00:19:16;;;;;;;208.18;57.33;;;;;;;1.06;86.98;102024.19;5084271;28;20409;-79
2022/01/26 00:21:50;;;;;;;195.07;59.58;;;;;;;1.07;87.62;102020.53;5074148;28;20419;-79
2022/01/26 00:29:22;;;;;;;193.32;57.20;;;;;;;1.05;88.31;102003.81;5075877;28;20414;-79
2022/01/26 00:33:07;;;;;;;167.45;50.88;;;;;;;1.12;87.57;102007.56;5073592;28;20490;-79
2022/01/26 00:42:59;;;;;;;216.27;54.30;;;;;;;1.02;87.26;102007.59;5088066;28;20450;-79
2022/01/26 00:45:32;;;;;;;166.05;51.97;;;;;;;1.02;87.26;102004.94;5084302;28;20426;-78
2022/01/26 00:48:00;;;;;;;205.48;56.95;;;;;;;1.01;87.26;102005.94;5079651;28;20417;-78
2022/01/26 00:50:25;;;;;;;177.05;54.63;;;;;;;0.94;87.88;102001.31;5073124;28;20400;-79
2022/01/26 00:52:54;;;;;;;196.03;56.30;;;;;;;0.97;87.76;102004.53;5087306;28;20485;-78
2022/01/26 00:55:20;;;;;;;203.18;53.75;;;;;;;0.98;88.00;102006.25;5084220;28;21113;-78
2022/01/26 00:57:47;;;;;;;169.32;51.63;;;;;;;1.00;87.31;102000.72;5087953;28;20410;-79
2022/01/26 01:00:18;;;;;;;185.23;55.00;;;;;;;1.05;87.93;102007.31;5073657;28;20396;-79
2022/01/26 01:02:44;;;;;;;160.67;52.43;;;;;;;1.10;87.85;102000.69;5087526;28;20434;-79
2022/01/26 01:05:22;;;;;;;196.52;56.53;;;;;;;1.11;87.72;102000.56;5076095;28;20848;-78
2022/01/26 01:07:53;;;;;;;159.15;53.63;;;;;;;1.09;87.58;102005.19;5080501;28;20396;-79
2022/01/26 01:10:22;;;;;;;149.85;51.80;;;;;;;0.98;88.14;102006.25;5072994;28;20916;-79
2022/01/26 01:12:49;;;;;;;157.00;53.33;;;;;;;0.91;88.94;102001.63;5073434;28;20448;-79
2022/01/26 01:15:15;;;;;;;144.45;47.40;;;;;;;0.94;88.23;102010.19;5087755;28;20921;-79
2022/01/26 01:17:46;;;;;;;156.67;49.40;;;;;;;0.94;88.27;102012.00;5081977;28;20398;-79
2022/01/26 01:20:42;;;;;;;141.82;48.47;;;;;;;0.88;88.90;102016.09;5082208;28;20814;-79
2022/01/26 01:30:41;;;;;;;143.23;48.23;;;;;;;0.59;88.46;102007.31;5076647;28;20416;-79
2022/01/26 01:33:08;;;;;;;131.35;48.78;;;;;;;0.57;89.14;102008.41;5082217;28;20480;-79
2022/01/26 01:35:38;;;;;;;126.47;48.60;;;;;;;0.52;89.23;102007.03;5087168;28;20396;-79
2022/01/26 01:38:09;;;;;;;147.95;48.42;;;;;;;0.50;89.69;102003.66;5089630;28;20409;-79
2022/01/26 01:40:37;;;;;;;144.85;49.17;;;;;;;0.71;89.60;102010.66;5086133;28;21195;-79
2022/01/26 01:43:04;;;;;;;141.47;48.93;;;;;;;0.90;89.16;102013.25;5072578;28;20409;-79
2022/01/26 01:45:35;;;;;;;132.75;47.13;;;;;;;0.85;88.66;102018.22;5074737;28;20798;-79
2022/01/26 01:48:02;;;;;;;150.35;46.80;;;;;;;0.77;89.13;102020.75;5078448;28;20449;-78
2022/01/26 01:50:27;;;;;;;139.68;48.20;;;;;;;0.65;89.44;102020.06;5074542;28;20933;-79
2022/01/26 01:52:59;;;;;;;131.03;47.63;;;;;;;0.63;89.64;102014.03;5086765;28;20516;-79
2022/01/26 01:55:27;;;;;;;148.38;46.75;;;;;;;0.51;89.27;102015.16;5076576;28;25127;-79
2022/01/26 01:57:54;;;;;;;139.85;49.17;;;;;;;0.55;89.93;102023.72;5077999;28;20939;-79
2022/01/26 02:00:19;;;;;;;133.98;47.08;;;;;;;0.69;90.21;102029.44;5071750;28;20435;-79
2022/01/26 02:02:45;;;;;;;143.60;49.53;;;;;;;0.77;89.36;102026.91;5079212;28;20433;-78
2022/01/26 02:05:10;;;;;;;130.75;47.03;;;;;;;0.52;89.39;102023.03;5080555;28;20424;-79
2022/01/26 02:07:36;;;;;;;123.32;44.50;;;;;;;0.40;89.81;102032.16;5077563;28;20399;-79
2022/01/26 02:10:02;;;;;;;125.07;44.13;;;;;;;0.33;90.26;102025.69;5072136;28;20408;-79
2022/01/26 02:12:29;;;;;;;120.05;45.05;;;;;;;0.51;90.11;102025.84;5083433;28;20389;-78
2022/01/26 02:15:05;;;;;;;117.82;44.53;;;;;;;0.57;89.57;102024.41;5076874;28;20404;-79
2022/01/26 02:50:23;;;;;;;98.72;36.88;;;;;;;0.52;88.86;102019.53;5073433;28;20438;-78
2022/01/26 02:53:02;;;;;;;108.85;38.15;;;;;;;0.52;89.03;102011.53;5074882;28;20403;-79
2022/01/26 03:00:45;;;;;;;95.57;38.25;;;;;;;0.75;87.95;102004.88;5079255;28;20399;-79
2022/01/26 03:03:18;;;;;;;89.88;35.05;;;;;;;0.63;88.02;101999.84;5076110;28;20402;-78
2022/01/26 03:06:07;;;;;;;95.57;35.42;;;;;;;0.54;88.79;102001.53;5085016;28;20389;-79
2022/01/26 03:08:36;;;;;;;82.70;34.08;;;;;;;0.71;88.07;102000.81;5070797;28;20422;-79
2022/01/26 03:11:09;;;;;;;93.30;38.08;;;;;;;0.68;87.94;101986.91;5072612;28;20387;-79
2022/01/26 03:13:38;;;;;;;100.85;36.67;;;;;;;0.72;87.65;101991.00;5070197;28;20479;-78
2022/01/26 03:16:11;;;;;;;104.32;38.05;;;;;;;0.68;87.55;101973.59;5078221;28;20514;-79
2022/01/26 03:21:10;;;;;;;98.45;37.25;;;;;;;0.75;87.90;101977.34;5075249;28;20610;-78
2022/01/26 03:34:17;;;;;;;74.60;32.50;;;;;;;0.17;88.82;102003.22;5074721;28;20424;-78
2022/01/26 03:39:14;;;;;;;94.45;34.33;;;;;;;0.45;88.55;102007.72;5090506;28;20493;-78
2022/01/26 03:41:44;;;;;;;89.20;34.33;;;;;;;0.53;88.76;102008.69;5082083;28;20413;-79
2022/01/26 03:44:10;;;;;;;95.07;34.27;;;;;;;0.39;88.74;102017.16;5075919;28;20824;-78
2022/01/26 03:46:36;;;;;;;94.80;35.10;;;;;;;0.31;89.39;102009.00;5073709;28;20435;-79
2022/01/26 03:49:04;;;;;;;118.53;49.30;;;;;;;0.31;89.62;102010.81;5082965;28;20466;-78
2022/01/26 03:51:29;;;;;;;88.03;37.03;;;;;;;0.48;89.38;101999.44;5073843;28;20437;-79
2022/01/26 03:53:55;;;;;;;75.65;32.78;;;;;;;0.70;88.29;102000.94;5078274;28;20413;-79
2022/01/26 03:56:20;;;;;;;86.53;33.25;;;;;;;0.67;87.10;101998.56;5075859;28;20407;-78
2022/01/26 03:58:45;;;;;;;84.13;33.77;;;;;;;0.75;86.55;101996.03;5082320;28;20401;-79
2022/01/26 04:01:11;;;;;;;90.80;36.20;;;;;;;0.54;86.80;102001.53;5081164;28;20416;-79
2022/01/26 04:03:36;;;;;;;83.93;35.87;;;;;;;0.58;87.46;102002.94;5103605;28;20486;-79
2022/01/26 04:06:02;;;;;;;79.40;34.87;;;;;;;0.44;87.66;102001.56;5083083;28;20401;-79
2022/01/26 04:08:30;;;;;;;78.82;34.17;;;;;;;0.50;88.15;101998.31;5070841;28;20466;-79
2022/01/26 04:13:24;;;;;;;75.07;32.20;;;;;;;0.51;87.98;101994.66;5082007;28;20717;-79
2022/01/26 04:15:49;;;;;;;69.77;31.57;;;;;;;0.44;88.22;101998.88;5070366;28;20394;-79
2022/01/26 04:18:20;;;;;;;64.17;29.43;;;;;;;0.62;88.11;101996.34;5087109;28;20387;-79
2022/01/26 04:20:49;;;;;;;65.78;29.23;;;;;;;0.72;87.12;101999.00;5079117;28;20406;-78
2022/01/26 04:23:26;;;;;;;65.78;31.42;;;;;;;0.75;86.55;102002.22;5075477;28;20425;-79
2022/01/26 04:25:53;;;;;;;68.20;29.58;;;;;;;0.74;86.20;101992.53;5072914;28;20400;-79
2022/01/26 04:28:28;;;;;;;63.78;28.85;;;;;;;0.77;86.56;101996.72;5080729;28;20386;-78
2022/01/26 04:30:53;;;;;;;68.03;29.95;;;;;;;0.69;86.54;101999.28;5073823;28;25106;-79
2022/01/26 04:33:18;;;;;;;70.17;31.40;;;;;;;0.57;87.79;101992.41;5086646;28;20413;-79
2022/01/26 04:35:46;;;;;;;72.90;29.60;;;;;;;0.75;86.82;102004.88;5075118;28;20396;-79
2022/01/26 04:38:24;;;;;;;70.05;30.52;;;;;;;0.81;86.14;102000.78;5080882;28;20938;-79
2022/01/26 04:41:21;;;;;;;81.30;32.35;;;;;;;0.80;85.59;102007.94;5075055;28;20436;-79
2022/01/26 04:43:50;;;;;;;84.82;32.58;;;;;;;0.74;86.22;102011.19;5085714;28;20437;-79
2022/01/26 04:46:15;;;;;;;82.55;33.17;;;;;;;0.74;85.96;101997.84;5082426;28;20405;-79
2022/01/26 04:48:41;;;;;;;72.07;31.80;;;;;;;0.76;86.68;101995.88;5077981;28;20426;-79
2022/01/26 04:51:06;;;;;;;75.72;32.15;;;;;;;0.69;86.41;102001.94;5075377;28;20391;-79
2022/01/26 04:53:31;;;;;;;73.63;31.00;;;;;;;0.48;87.94;101997.63;5076990;28;20399;-79
2022/01/26 04:55:57;;;;;;;71.43;31.37;;;;;;;0.59;88.26;101991.31;5074007;28;20457;-79
2022/01/26 04:58:22;;;;;;;86.93;33.10;;;;;;;0.69;87.39;101986.75;5084815;28;20394;-79
2022/01/26 05:00:47;;;;;;;86.10;33.83;;;;;;;0.73;86.54;101987.31;5078944;28;20392;-79
2022/01/26 05:03:13;;;;;;;86.43;33.93;;;;;;;0.75;86.87;101994.22;5087262;28;20394;-79
2022/01/26 05:05:38;;;;;;;91.77;35.03;;;;;;;0.70;87.62;102000.94;5087607;28;20460;-79
2022/01/26 05:08:04;;;;;;;87.70;34.40;;;;;;;0.68;87.63;102005.59;5079998;28;20395;-79
2022/01/26 05:10:29;;;;;;;86.87;34.93;;;;;;;0.67;87.47;102015.41;5073464;28;20396;-79
2022/01/26 05:12:55;;;;;;;89.90;35.87;;;;;;;0.78;87.58;102009.09;5078962;28;20416;-79
2022/01/26 05:15:23;;;;;;;95.57;35.87;;;;;;;0.79;87.50;102000.09;5072108;28;20392;-79
2022/01/26 05:17:48;;;;;;;101.20;38.10;;;;;;;0.63;87.71;101999.84;5085789;28;20411;-78
2022/01/26 05:20:14;;;;;;;99.80;38.15;;;;;;;0.74;87.95;102005.03;5062441;28;20417;-79
2022/01/26 05:22:41;;;;;;;98.80;36.25;;;;;;;0.79;87.55;101992.91;5042952;28;20391;-79
2022/01/26 05:25:07;;;;;;;107.25;38.38;;;;;;;0.84;87.27;101997.84;5041522;28;20426;-79
2022/01/26 05:27:32;;;;;;;100.75;38.22;;;;;;;0.78;87.28;102001.09;5039440;28;20418;-79
2022/01/26 05:29:59;;;;;;;104.00;38.22;;;;;;;0.78;87.75;102001.94;5033697;28;20910;-79
2022/01/26 05:32:25;;;;;;;94.40;37.38;;;;;;;0.80;87.84;102004.44;5047329;28;20400;-79
2022/01/26 05:34:50;;;;;;;91.75;37.83;;;;;;;0.66;88.33;102000.38;5034444;28;20759;-79
2022/01/26 05:37:15;;;;;;;99.67;38.00;;;;;;;0.72;88.24;101999.84;5033897;28;20399;-79
2022/01/26 05:39:41;;;;;;;84.70;36.67;;;;;;;0.65;88.30;101998.72;5051402;28;20799;-79
2022/01/26 05:42:07;;;;;;;95.43;39.13;;;;;;;0.58;89.51;102000.28;5037687;28;20441;-79
2022/01/26 05:44:33;;;;;;;94.38;39.45;;;;;;;0.43;88.83;101997.19;5034756;28;23555;-79
2022/01/26 05:46:58;;;;;;;99.38;42.83;;;;;;;0.39;89.34;102003.81;5045522;28;20405;-79
2022/01/26 05:49:25;;;;;;;99.35;41.40;;;;;;;0.29;89.74;102007.47;5030035;28;20418;-79
2022/01/26 05:51:53;;;;;;;110.70;43.50;;;;;;;0.28;90.55;101998.63;5032610;28;20440;-80
2022/01/26 05:54:18;;;;;;;101.25;42.75;;;;;;;0.38;90.54;101993.28;5031552;28;20414;-80
2022/01/26 05:56:47;;;;;;;109.60;44.20;;;;;;;0.43;89.81;101986.53;5045122;28;20486;-79
2022/01/26 05:59:15;;;;;;;104.07;43.38;;;;;;;0.43;89.83;101985.69;5039854;28;20411;-79
2022/01/26 06:01:41;;;;;;;103.43;42.75;;;;;;;0.49;89.89;101995.81;5042447;28;20397;-79
2022/01/26 06:04:06;;;;;;;102.43;42.25;;;;;;;0.34;90.05;101989.19;5034153;28;20927;-79
2022/01/26 06:06:31;;;;;;;98.00;41.43;;;;;;;0.26;90.17;101992.59;5038961;28;20411;-79
2022/01/26 06:08:57;;;;;;;93.40;40.73;;;;;;;0.21;90.91;101984.16;5050069;28;20401;-80
2022/01/26 06:11:22;;;;;;;101.27;42.23;;;;;;;0.22;91.11;101983.19;5035189;28;20420;-81
2022/01/26 06:13:47;;;;;;;102.77;43.37;;;;;;;0.44;90.76;101992.72;5040650;28;20451;-79
2022/01/26 06:16:14;;;;;;;98.60;41.67;;;;;;;0.30;90.72;101993.13;5033483;28;20957;-79
2022/01/26 06:18:39;;;;;;;96.50;42.22;;;;;;;0.31;90.37;101994.81;5040255;28;20428;-80
2022/01/26 06:21:04;;;;;;;98.33;42.00;;;;;;;0.31;91.17;101993.00;5046907;28;20872;-80
2022/01/26 06:23:30;;;;;;;103.20;43.97;;;;;;;0.27;90.30;101996.06;5037035;28;20521;-81
2022/01/26 06:25:57;;;;;;;95.30;41.77;;;;;;;0.39;90.03;101992.31;5035277;28;20418;-80
2022/01/26 06:28:26;;;;;;;98.23;42.03;;;;;;;0.39;90.13;101994.97;5031533;28;20829;-82
2022/01/26 06:30:59;;;;;;;97.35;40.42;;;;;;;0.27;89.93;101985.41;5039089;28;20400;-80
2022/01/26 06:33:25;;;;;;;98.82;40.47;;;;;;;0.33;90.53;101987.53;5034824;28;20409;-80
2022/01/26 06:35:51;;;;;;;90.90;39.67;;;;;;;0.16;90.52;101986.41;5040169;28;20406;-82
2022/01/26 06:38:16;;;;;;;91.93;40.80;;;;;;;0.06;90.77;101980.25;5031239;28;20905;-79
2022/01/26 06:40:45;;;;;;;93.57;40.47;;;;;;;0.15;91.24;101987.41;5031552;28;20501;-81
2022/01/26 06:43:14;;;;;;;89.45;39.53;;;;;;;0.21;91.35;101980.66;5054199;28;20395;-79
2022/01/26 06:45:48;;;;;;;93.35;41.30;;;;;;;0.29;91.06;101983.47;5035381;28;20897;-79
2022/01/26 06:50:58;;;;;;;87.57;39.30;;;;;;;0.35;90.15;101993.56;5033183;28;20399;-80
2022/01/26 06:53:24;;;;;;;88.13;39.10;;;;;;;0.20;90.46;101989.66;5032151;28;20403;-79
2022/01/26 06:55:50;;;;;;;78.33;36.63;;;;;;;0.15;89.70;101995.41;5031599;28;20793;-79
2022/01/26 06:58:16;;;;;;;87.05;37.00;;;;;;;0.19;90.13;101996.81;5029857;28;20407;-81
2022/01/26 07:00:45;;;;;;;84.97;35.55;;;;;;;0.17;90.00;101993.41;5045581;28;20398;-80
2022/01/26 07:03:10;;;;;;;83.85;37.63;;;;;;;0.18;90.61;102005.78;5048296;28;20406;-81
2022/01/26 07:05:36;;;;;;;81.13;35.60;;;;;;;0.22;90.31;102015.19;5041947;28;20438;-81
2022/01/26 07:08:02;;;;;;;81.20;34.73;;;;;;;0.17;89.61;102009.41;5042908;28;20410;-80
2022/01/26 07:10:27;;;;;;;74.70;34.70;;;;;;;0.31;89.72;102010.81;5034622;28;20399;-80
2022/01/26 07:12:52;;;;;;;81.45;33.92;;;;;;;0.32;88.71;102015.19;5030802;28;20453;-80
2022/01/26 07:21:23;;;;;;;68.88;33.20;;;;;;;0.19;88.87;102031.47;5043215;28;20421;-80
2022/01/26 07:23:49;;;;;;;68.45;33.38;;;;;;;0.33;88.06;102041.69;5035546;28;25138;-83
2022/01/26 07:26:14;;;;;;;69.10;32.45;;;;;;;0.10;88.89;102036.78;5030963;28;20482;-80
2022/01/26 07:28:40;;;;;;;66.60;31.55;;;;;;;0.21;89.14;102042.81;5062632;28;20476;-80
2022/01/26 07:31:06;;;;;;;68.35;31.92;;;;;;;0.25;89.07;102033.56;5041471;28;20412;-81
2022/01/26 07:33:32;;;;;;;65.17;30.37;;;;;;;0.35;88.07;102037.06;5055580;28;20487;-80
2022/01/26 07:35:58;;;;;;;61.22;29.45;;;;;;;0.23;87.53;102032.03;5030487;28;20448;-80
2022/01/26 07:38:25;;;;;;;55.35;27.63;;;;;;;0.14;88.45;102047.00;5047377;28;20389;-81
2022/01/26 07:40:50;;;;;;;49.78;27.40;;;;;;;0.25;88.68;102052.22;5034176;28;20412;-80
2022/01/26 07:43:16;;;;;;;54.40;28.20;;;;;;;0.12;88.34;102054.31;5031063;28;20432;-80
2022/01/26 07:45:41;;;;;;;49.03;26.97;;;;;;;0.19;88.54;102063.44;5043416;28;20907;-80
2022/01/26 07:48:07;;;;;;;54.20;27.43;;;;;;;0.18;87.85;102068.91;5035180;28;20391;-80
2022/01/26 07:50:33;;;;;;;56.35;28.83;;;;;;;0.12;87.53;102072.97;5039540;28;20402;-80
2022/01/26 07:53:00;;;;;;;48.97;27.10;;;;;;;0.20;88.21;102083.78;5036067;28;20411;-80
2022/01/26 07:55:25;;;;;;;48.85;26.98;;;;;;;0.28;87.52;102077.75;5042491;28;20389;-81
2022/01/26 07:57:51;;;;;;;50.70;26.50;;;;;;;0.25;87.32;102073.56;5035374;28;20398;-80
2022/01/26 08:00:18;;;;;;;53.10;28.30;;;;;;;0.28;87.66;102067.94;5030861;28;20419;-80
2022/01/26 08:02:44;;;;;;;53.90;29.17;;;;;;;0.44;86.53;102068.22;5038150;28;20739;-80
2022/01/26 08:05:11;;;;;;;51.13;29.00;;;;;;;0.33;86.79;102078.19;5041038;28;20428;-80
2022/01/26 08:07:36;;;;;;;50.70;28.43;;;;;;;0.36;87.33;102075.25;5042530;28;20876;-83
2022/01/26 08:10:04;;;;;;;48.20;27.00;;;;;;;0.30;86.21;102083.78;5038518;28;20458;-81
2022/01/26 08:12:29;;;;;;;46.45;26.52;;;;;;;0.23;86.93;102078.16;5037826;28;20882;-80
2022/01/26 08:14:55;;;;;;;46.73;26.87;;;;;;;0.07;87.72;102093.84;5043034;28;20445;-80
2022/01/26 08:17:20;;;;;;;48.27;27.33;;;;;;;0.26;87.63;102090.41;5040294;28;20417;-80
2022/01/26 08:19:46;;;;;;;46.10;26.33;;;;;;;0.47;86.48;102086.63;5035023;28;20417;-81
2022/01/26 08:22:18;;;;;;;45.50;25.05;;;;;;;0.50;86.24;102075.66;5053655;28;20414;-81
2022/01/26 08:24:43;;;;;;;41.97;25.33;;;;;;;0.41;86.25;102076.50;5047948;28;20448;-81
2022/01/26 08:27:12;;;;;;;43.90;24.27;;;;;;;0.34;86.05;102074.53;5047562;28;20429;-81
2022/01/26 08:29:54;;;;;;;44.40;25.02;;;;;;;0.41;85.98;102081.84;5035946;28;21039;-81
2022/01/26 08:32:19;;;;;;;41.05;23.48;;;;;;;0.47;86.24;102085.78;5046529;28;20483;-81
2022/01/26 08:34:45;;;;;;;41.33;24.77;;;;;;;0.38;86.34;102092.78;5034557;28;20470;-81
2022/01/26 08:37:10;;;;;;;44.63;25.02;;;;;;;0.55;86.01;102083.25;5043537;28;20502;-80
2022/01/26 08:39:36;;;;;;;41.67;24.57;;;;;;;0.47;86.06;102081.28;5050493;28;20499;-80
2022/01/26 08:42:05;;;;;;;41.83;23.17;;;;;;;0.59;86.08;102076.66;5044493;28;20437;-81
2022/01/26 08:44:31;;;;;;;41.50;24.17;;;;;;;0.74;84.73;102079.72;5036559;28;20453;-81
2022/01/26 08:46:56;;;;;;;40.03;23.67;;;;;;;0.71;84.62;102094.19;5043727;28;20466;-81
2022/01/26 08:49:22;;;;;;;41.37;24.90;;;;;;;0.63;85.13;102098.53;5045303;28;20421;-81
2022/01/26 08:51:51;;;;;;;47.47;26.08;;;;;;;0.55;85.61;102096.59;5033997;28;20398;-81
2022/01/26 08:54:20;;;;;;;46.50;25.63;;;;;;;0.48;85.83;102100.81;5039513;28;20467;-81
2022/01/26 08:56:47;;;;;;;40.10;23.73;;;;;;;0.52;85.98;102126.22;5033699;28;20807;-81
2022/01/26 08:59:13;;;;;;;43.92;25.08;;;;;;;0.37;85.88;102120.44;5035867;28;20393;-81
2022/01/26 09:01:38;;;;;;;41.67;25.10;;;;;;;0.40;87.13;102112.16;5047906;28;20402;-81
2022/01/26 09:04:03;;;;;;;47.25;25.65;;;;;;;0.64;86.15;102109.09;5033230;28;20458;-80
2022/01/26 09:06:28;;;;;;;47.07;25.47;;;;;;;0.62;85.21;102107.56;5032183;28;20411;-80
2022/01/26 09:09:01;;;;;;;47.87;26.20;;;;;;;0.45;85.80;102104.59;5036351;28;20406;-81
2022/01/26 09:11:27;;;;;;;43.20;24.70;;;;;;;0.39;86.31;102105.16;5039308;28;20397;-80
2022/01/26 09:13:57;;;;;;;48.97;26.17;;;;;;;0.46;86.71;102100.94;5041498;28;20426;-81
2022/01/26 09:16:24;;;;;;;46.40;24.23;;;;;;;0.55;86.28;102101.09;5043551;28;20405;-80
2022/01/26 09:18:53;;;;;;;48.43;25.50;;;;;;;0.67;85.48;102086.63;5035418;28;20399;-80
2022/01/26 09:21:18;;;;;;;44.95;24.77;;;;;;;0.70;85.80;102091.66;5047389;28;20414;-80
2022/01/26 09:23:47;;;;;;;49.05;25.38;;;;;;;0.70;85.45;102089.00;5038740;28;20787;-80
2022/01/26 09:26:12;;;;;;;45.20;23.77;;;;;;;0.67;85.48;102070.59;5033825;28;20482;-80
2022/01/26 09:28:37;;;;;;;42.23;22.77;;;;;;;0.80;84.98;102066.66;5034524;28;20403;-81
2022/01/26 09:31:03;;;;;;;45.10;23.07;;;;;;;0.79;84.84;102064.16;5030347;28;20411;-80
2022/01/26 09:33:28;;;;;;;46.90;23.63;;;;;;;0.74;85.22;102072.56;5047623;28;20403;-80
2022/01/26 09:35:56;;;;;;;42.37;23.30;;;;;;;0.79;84.95;102070.31;5045762;28;20393;-80
2022/01/26 09:38:21;;;;;;;44.95;24.48;;;;;;;0.82;84.89;102074.53;5047479;28;20405;-80
2022/01/26 09:40:48;;;;;;;43.08;23.40;;;;;;;0.66;85.47;102079.63;5037967;28;20430;-79
2022/01/26 09:43:16;;;;;;;48.23;24.93;;;;;;;0.57;86.42;102083.94;5044742;28;20402;-80
2022/01/26 09:45:41;;;;;;;48.45;24.95;;;;;;;0.55;87.07;102066.41;5042464;28;20940;-79
2022/01/26 09:48:08;;;;;;;49.40;25.65;;;;;;;0.60;87.07;102056.97;5043260;28;20418;-79
2022/01/26 09:50:34;;;;;;;47.55;25.02;;;;;;;0.71;86.42;102054.19;5051329;28;20499;-79
2022/01/26 09:52:59;;;;;;;52.43;25.97;;;;;;;0.67;85.89;102067.94;5050686;28;20485;-79
2022/01/26 09:55:26;;;;;;;51.63;25.77;;;;;;;0.43;87.19;102058.53;5052360;28;21035;-79
2022/01/26 09:57:58;;;;;;;49.10;25.55;;;;;;;0.50;87.79;102051.66;5039120;28;20477;-79
2022/01/26 10:00:30;;;;;;;46.30;24.17;;;;;;;0.66;86.77;102042.25;5032857;28;20395;-80
2022/01/26 10:02:59;;;;;;;50.50;24.83;;;;;;;0.74;86.17;102051.22;5040855;28;20488;-79
2022/01/26 10:05:25;;;;;;;44.70;22.20;;;;;;;0.81;86.46;102054.16;5052728;28;20488;-80
2022/01/26 10:08:11;;;;;;;46.10;23.50;;;;;;;0.72;86.13;102055.03;5040984;28;20864;-80
2022/01/26 10:16:07;;;;;;;40.45;21.60;;;;;;;0.83;85.39;102053.03;5034956;28;20398;-79
2022/01/26 10:18:33;;;;;;;43.95;23.30;;;;;;;0.85;85.20;102029.72;5037301;28;20402;-79
2022/01/26 10:21:03;;;;;;;40.10;20.98;;;;;;;0.81;85.23;102033.66;5041620;28;20412;-79
2022/01/26 10:23:36;;;;;;;39.25;20.25;;;;;;;0.92;84.82;102035.34;5034200;28;20480;-79
2022/01/26 10:26:03;;;;;;;39.35;21.33;;;;;;;0.72;85.17;102061.22;5033673;28;20410;-79
2022/01/26 10:28:57;;;;;;;40.05;20.25;;;;;;;0.70;85.73;102073.84;5045776;28;20753;-79
2022/01/26 10:31:25;;;;;;;38.05;20.38;;;;;;;0.79;86.06;102075.66;5045579;28;20882;-79
2022/01/26 10:33:57;;;;;;;32.58;20.45;;;;;;;0.80;85.89;102081.81;5038344;28;20439;-79
2022/01/26 10:36:23;;;;;;;34.90;20.73;;;;;;;0.79;85.29;102093.50;5040552;28;20389;-80
2022/01/26 10:38:59;;;;;;;33.33;20.90;;;;;;;0.69;85.76;102098.81;5046174;28;20478;-79
2022/01/26 10:41:25;;;;;;;32.60;21.23;;;;;;;0.84;85.41;102108.09;5044832;28;20421;-79
2022/01/26 10:43:52;;;;;;;30.67;20.10;;;;;;;0.82;85.28;102115.41;5031922;28;20414;-80
2022/01/26 10:46:30;;;;;;;29.90;19.70;;;;;;;0.85;85.17;102096.44;5048674;28;20794;-78
2022/01/26 10:54:37;;;;;;;42.38;22.15;;;;;;;0.81;85.51;102111.06;5032273;28;20415;-81
2022/01/26 10:57:05;;;;;;;36.22;21.73;;;;;;;0.95;84.95;102104.44;5053443;28;20859;-80
2022/01/26 10:59:40;;;;;;;34.28;20.13;;;;;;;0.87;84.65;102109.63;5037593;28;20455;-79
2022/01/26 11:02:07;;;;;;;32.85;21.27;;;;;;;0.99;84.96;102108.50;5049491;28;20756;-79
2022/01/26 11:04:34;;;;;;;34.50;20.30;;;;;;;0.79;84.63;102099.66;5037332;28;20892;-79
2022/01/26 11:07:01;;;;;;;31.58;20.70;;;;;;;0.97;84.85;102100.63;5033356;28;20395;-79
2022/01/26 11:09:30;;;;;;;31.88;20.35;;;;;;;0.91;83.84;102109.22;5038285;28;20395;-79
2022/01/26 11:12:07;;;;;;;33.83;20.80;;;;;;;0.92;84.63;102118.06;5030551;28;20392;-79
2022/01/26 11:14:45;;;;;;;30.92;19.60;;;;;;;0.89;84.87;102107.69;5046891;28;20472;-80
2022/01/26 11:17:24;;;;;;;31.27;20.13;;;;;;;1.08;83.42;102094.31;5052905;28;20441;-80
2022/01/26 11:19:49;;;;;;;35.70;20.10;;;;;;;0.88;84.18;102093.50;5036921;28;20459;-80
2022/01/26 11:22:15;;;;;;;32.70;19.50;;;;;;;1.01;83.66;102085.19;5031915;28;20765;-79
2022/01/26 11:24:48;;;;;;;30.70;18.93;;;;;;;0.91;83.91;102089.69;5032901;28;20398;-79
2022/01/26 11:27:16;;;;;;;32.55;19.80;;;;;;;0.82;84.44;102079.88;5045061;28;20476;-79
2022/01/26 11:29:46;;;;;;;34.40;19.48;;;;;;;0.67;85.10;102087.47;5039960;28;20412;-79
2022/01/26 11:32:25;;;;;;;33.00;19.40;;;;;;;0.86;85.03;102089.25;5044543;28;20515;-79
2022/01/26 11:34:52;;;;;;;32.08;19.08;;;;;;;0.86;85.03;102070.56;5036530;28;20411;-79
2022/01/26 11:37:35;;;;;;;34.65;20.02;;;;;;;0.78;85.15;102070.47;5035718;28;20743;-78
2022/01/26 11:45:37;;;;;;;32.00;18.47;;;;;;;0.71;85.14;102070.19;5035642;28;20418;-79
2022/01/26 11:48:21;;;;;;;31.57;18.77;;;;;;;0.73;84.94;102088.72;5051111;28;20973;-79
2022/01/26 11:51:00;;;;;;;33.15;19.73;;;;;;;0.78;85.56;102068.66;5035446;28;20484;-79
2022/01/26 11:53:27;;;;;;;34.58;18.83;;;;;;;1.04;84.10;102074.22;5043554;28;20419;-79
2022/01/26 11:56:01;;;;;;;35.92;19.52;;;;;;;0.97;84.14;102081.09;5035426;28;20831;-78
2022/01/26 11:58:43;;;;;;;32.75;18.20;;;;;;;0.77;84.95;102087.44;5037733;28;20391;-79
2022/01/26 12:01:27;;;;;;;32.03;18.10;;;;;;;0.77;85.25;102084.78;5041484;28;20416;-84
2022/01/26 12:04:02;;;;;;;34.70;18.80;;;;;;;0.87;85.46;102072.28;5035389;28;20426;-78
2022/01/26 12:06:36;;;;;;;32.95;17.60;;;;;;;1.05;84.78;102071.38;5039207;28;20449;-79
2022/01/26 12:09:04;;;;;;;36.38;18.67;;;;;;;1.10;83.53;102078.13;5046063;28;20394;-79
2022/01/26 12:11:30;;;;;;;36.05;20.00;;;;;;;0.93;84.33;102080.56;5038156;28;20434;-79
2022/01/26 12:13:59;;;;;;;37.10;20.80;;;;;;;0.93;84.88;102072.53;5043193;28;20483;-79
2022/01/26 12:16:35;;;;;;;37.35;20.63;;;;;;;0.99;84.64;102071.97;5033143;28;20398;-79
2022/01/26 12:19:23;;;;;;;35.85;20.08;;;;;;;0.87;84.91;102066.94;5036163;28;20401;-78
2022/01/26 12:33:37;;;;;;;33.50;19.33;;;;;;;0.99;84.54;102052.44;5034279;28;21166;-78
2022/01/26 12:36:16;;;;;;;39.37;19.40;;;;;;;0.68;85.71;102057.13;5034405;28;20466;-79
2022/01/26 12:38:50;;;;;;;36.55;18.98;;;;;;;0.77;85.62;102058.09;5044745;28;20876;-79
2022/01/26 12:43:56;;;;;;;33.28;17.50;;;;;;;0.89;85.48;102059.66;5035064;28;20446;-80
2022/01/26 12:46:28;;;;;;;32.10;17.90;;;;;;;0.79;85.12;102056.16;5032074;28;20790;-80
2022/01/26 12:48:57;;;;;;;34.25;17.52;;;;;;;0.81;85.31;102063.03;5038570;28;20413;-81
2022/01/26 12:51:23;;;;;;;36.30;18.25;;;;;;;0.89;84.88;102065.78;5036845;28;20486;-79
2022/01/26 12:53:58;;;;;;;38.45;18.65;;;;;;;0.85;84.69;102064.44;5039548;28;20484;-79
2022/01/26 12:56:26;;;;;;;35.38;19.10;;;;;;;0.84;85.21;102061.88;5042096;28;20392;-81
2022/01/26 12:58:59;;;;;;;35.13;18.73;;;;;;;0.92;84.51;102057.50;5033558;28;20399;-79
2022/01/26 13:01:24;;;;;;;34.70;18.42;;;;;;;0.99;84.49;102055.09;5033757;28;20390;-80
2022/01/26 13:03:59;;;;;;;35.60;17.97;;;;;;;0.89;84.86;102062.31;5047217;28;20419;-80
2022/01/26 13:06:27;;;;;;;33.72;19.85;;;;;;;0.96;84.51;102053.56;5039406;28;20411;-79
2022/01/26 13:09:01;;;;;;;37.40;20.75;;;;;;;1.01;84.48;102066.50;5046781;28;20389;-79
2022/01/26 13:11:27;;;;;;;34.93;18.43;;;;;;;0.92;84.67;102057.50;5033778;28;20479;-79
2022/01/26 13:14:12;;;;;;;36.15;21.00;;;;;;;0.95;84.41;102064.41;5048444;28;20401;-78
2022/01/26 13:16:40;;;;;;;34.97;18.67;;;;;;;0.81;85.10;102064.84;5049875;28;20452;-78
2022/01/26 13:22:11;;;;;;;33.85;19.73;;;;;;;0.79;85.33;102078.31;5039532;28;20846;-76
2022/01/26 13:25:35;;;;;;;38.92;21.10;;;;;;;1.00;84.99;102078.16;5043807;28;20458;-78
2022/01/26 13:27:55;;;;;;;38.00;21.17;;;;;;;0.93;84.28;102066.34;5034855;28;20807;-78